createdAt,value
2017-09-24T00:00:42.910Z,17.00
2017-09-24T00:03:10.868Z,15.80
2017-09-24T00:05:38.717Z,16.90
2017-09-24T00:08:07.596Z,17.30
2017-09-24T00:10:35.385Z,15.93
2017-09-24T00:13:03.120Z,16.87
2017-09-24T00:15:30.985Z,17.23
2017-09-24T00:18:00.053Z,16.40
2017-09-24T00:20:27.914Z,17.07
2017-09-24T00:22:56.734Z,17.27
2017-09-24T00:25:24.547Z,17.03
2017-09-24T00:27:53.503Z,18.00
2017-09-24T00:30:21.181Z,18.93
2017-09-24T00:32:49.074Z,19.70
2017-09-24T00:35:16.761Z,18.80
2017-09-24T00:37:44.935Z,19.80
2017-09-24T00:40:14.003Z,18.40
2017-09-24T00:42:41.766Z,18.60
2017-09-24T00:45:09.551Z,19.17
2017-09-24T00:47:37.070Z,18.80
2017-09-24T00:50:06.104Z,18.30
2017-09-24T00:52:34.886Z,19.00
2017-09-24T00:55:02.642Z,17.07
2017-09-24T00:57:30.843Z,17.27
2017-09-24T00:59:59.229Z,16.07
2017-09-24T01:02:27.734Z,16.37
2017-09-24T01:04:55.504Z,17.30
2017-09-24T01:07:23.704Z,16.00
2017-09-24T01:09:51.550Z,15.23
2017-09-24T01:12:19.913Z,17.00
2017-09-24T01:14:48.994Z,16.50
2017-09-24T01:17:18.421Z,15.77
2017-09-24T01:19:47.098Z,15.03
2017-09-24T01:22:15.219Z,15.43
2017-09-24T01:24:47.255Z,16.73
2017-09-24T01:27:15.077Z,16.17
2017-09-24T01:29:42.958Z,16.10
2017-09-24T01:32:11.278Z,16.40
2017-09-24T01:34:38.849Z,17.10
2017-09-24T01:37:06.377Z,16.67
2017-09-24T01:39:36.850Z,15.10
2017-09-24T01:42:05.653Z,15.57
2017-09-24T01:44:33.503Z,16.87
2017-09-24T01:47:02.845Z,15.50
2017-09-24T01:49:30.516Z,16.40
2017-09-24T01:51:58.637Z,17.07
2017-09-24T01:54:26.964Z,15.83
2017-09-24T01:56:55.685Z,15.83
2017-09-24T01:59:24.259Z,15.73
2017-09-24T02:01:52.038Z,15.50
2017-09-24T02:04:19.614Z,15.57
2017-09-24T02:06:47.339Z,16.43
2017-09-24T02:09:15.356Z,16.17
2017-09-24T02:11:43.966Z,16.87
2017-09-24T02:14:12.601Z,16.27
2017-09-24T02:16:40.350Z,16.00
2017-09-24T02:19:09.443Z,16.60
2017-09-24T02:21:38.144Z,16.50
2017-09-24T02:24:06.136Z,15.93
2017-09-24T02:26:33.656Z,18.80
2017-09-24T02:29:01.765Z,18.57
2017-09-24T02:31:29.695Z,17.80
2017-09-24T02:33:57.580Z,18.20
2017-09-24T02:36:25.664Z,18.07
2017-09-24T02:38:53.700Z,18.00
2017-09-24T02:41:21.510Z,18.80
2017-09-24T02:43:51.379Z,17.57
2017-09-24T02:46:18.940Z,17.07
2017-09-24T02:48:47.652Z,16.70
2017-09-24T02:51:15.530Z,18.17
2017-09-24T02:53:43.356Z,18.50
2017-09-24T02:56:10.919Z,18.33
2017-09-24T02:58:40.092Z,18.00
2017-09-24T03:01:08.055Z,17.30
2017-09-24T03:03:35.696Z,17.97
2017-09-24T03:06:04.483Z,17.87
2017-09-24T03:08:31.981Z,18.00
2017-09-24T03:10:59.978Z,17.60
2017-09-24T03:13:29.776Z,17.70
2017-09-24T03:15:57.732Z,18.07
2017-09-24T03:18:25.421Z,17.80
2017-09-24T03:20:53.135Z,17.37
2017-09-24T03:23:21.465Z,18.30
2017-09-24T03:25:49.827Z,17.17
2017-09-24T03:28:17.668Z,18.60
2017-09-24T03:30:45.520Z,16.80
2017-09-24T03:33:13.277Z,18.07
2017-09-24T03:35:41.070Z,17.40
2017-09-24T03:38:08.871Z,17.10
2017-09-24T03:40:37.087Z,16.27
2017-09-24T03:43:04.581Z,17.37
2017-09-24T03:45:32.613Z,17.10
2017-09-24T03:48:03.313Z,18.03
2017-09-24T03:50:31.942Z,17.70
2017-09-24T03:53:01.622Z,16.90
2017-09-24T03:55:31.148Z,16.83
2017-09-24T03:58:01.734Z,18.90
2017-09-24T04:00:29.601Z,17.03
2017-09-24T04:02:57.474Z,18.07
2017-09-24T04:05:26.396Z,16.53
2017-09-24T04:07:54.912Z,16.80
2017-09-24T04:10:24.631Z,18.53
2017-09-24T04:12:52.648Z,17.50
2017-09-24T04:15:20.464Z,16.30
2017-09-24T04:17:48.190Z,19.27
2017-09-24T04:20:17.360Z,17.63
2017-09-24T04:22:45.377Z,18.47
2017-09-24T04:25:14.509Z,16.40
2017-09-24T04:27:43.584Z,16.73
2017-09-24T04:30:11.227Z,18.00
2017-09-24T04:32:39.114Z,18.70
2017-09-24T04:35:06.748Z,18.70
2017-09-24T04:37:34.684Z,18.00
2017-09-24T04:40:02.250Z,18.00
2017-09-24T04:42:30.192Z,18.23
2017-09-24T04:44:57.832Z,18.40
2017-09-24T04:47:25.938Z,17.43
2017-09-24T04:49:53.469Z,17.87
2017-09-24T04:52:21.200Z,17.07
2017-09-24T04:54:49.062Z,17.00
2017-09-24T04:57:16.778Z,16.90
2017-09-24T04:59:44.274Z,17.30
2017-09-24T05:02:11.768Z,16.70
2017-09-24T05:04:39.259Z,16.97
2017-09-24T05:07:06.757Z,16.93
2017-09-24T05:09:34.275Z,17.30
2017-09-24T05:12:02.065Z,16.97
2017-09-24T05:14:29.659Z,19.40
2017-09-24T05:16:57.187Z,18.37
2017-09-24T05:19:24.647Z,16.73
2017-09-24T05:21:52.166Z,17.80
2017-09-24T05:24:19.711Z,17.63
2017-09-24T05:26:47.262Z,17.37
2017-09-24T05:29:14.836Z,17.33
2017-09-24T05:31:42.419Z,18.30
2017-09-24T05:34:09.957Z,17.27
2017-09-24T05:36:37.459Z,16.93
2017-09-24T05:39:04.989Z,16.53
2017-09-24T05:41:32.561Z,17.43
2017-09-24T05:44:00.301Z,16.03
2017-09-24T05:46:28.072Z,17.93
2017-09-24T05:48:55.596Z,17.60
2017-09-24T05:51:23.313Z,18.00
2017-09-24T05:53:50.845Z,18.20
2017-09-24T05:56:19.367Z,20.33
2017-09-24T05:58:48.066Z,18.33
2017-09-24T06:01:20.124Z,19.80
2017-09-24T06:03:48.019Z,20.13
2017-09-24T06:06:15.536Z,23.13
2017-09-24T06:08:47.299Z,22.90
2017-09-24T06:11:16.169Z,21.60
2017-09-24T06:13:44.664Z,20.93
2017-09-24T06:16:13.244Z,20.80
2017-09-24T06:18:40.833Z,20.40
2017-09-24T06:21:08.387Z,20.63
2017-09-24T06:23:35.920Z,19.20
2017-09-24T06:26:03.429Z,19.30
2017-09-24T06:28:31.089Z,20.40
2017-09-24T06:30:58.612Z,21.17
2017-09-24T06:33:26.142Z,21.00
2017-09-24T06:35:54.385Z,21.80
2017-09-24T06:38:21.952Z,22.00
2017-09-24T06:40:50.118Z,21.57
2017-09-24T06:43:17.683Z,22.00
2017-09-24T06:45:45.226Z,20.80
2017-09-24T06:48:12.771Z,21.07
2017-09-24T06:50:40.480Z,21.30
2017-09-24T06:53:08.117Z,21.40
2017-09-24T06:55:35.655Z,20.10
2017-09-24T06:58:03.140Z,21.07
2017-09-24T07:00:30.747Z,21.70
2017-09-24T07:02:58.272Z,21.80
2017-09-24T07:05:25.916Z,21.10
2017-09-24T07:07:53.620Z,22.20
2017-09-24T07:10:21.179Z,22.20
2017-09-24T07:12:48.710Z,22.60
2017-09-24T07:15:16.300Z,23.43
2017-09-24T07:17:43.814Z,23.37
2017-09-24T07:20:11.425Z,22.30
2017-09-24T07:22:39.558Z,22.07
2017-09-24T07:25:07.140Z,23.40
2017-09-24T07:27:34.677Z,22.33
2017-09-24T07:30:02.310Z,22.03
2017-09-24T07:32:30.137Z,23.80
2017-09-24T07:34:57.775Z,22.20
2017-09-24T07:37:25.358Z,20.77
2017-09-24T07:39:53.661Z,22.50
2017-09-24T07:42:21.339Z,23.13
2017-09-24T07:44:48.898Z,23.63
2017-09-24T07:47:16.477Z,22.33
2017-09-24T07:49:44.010Z,21.90
2017-09-24T07:54:45.464Z,22.57
2017-09-24T07:57:13.481Z,23.00
2017-09-24T07:59:41.042Z,23.80
2017-09-24T08:02:08.735Z,24.90
2017-09-24T08:04:37.575Z,23.47
2017-09-24T08:07:05.265Z,23.70
2017-09-24T08:09:32.770Z,24.40
2017-09-24T08:12:00.324Z,25.80
2017-09-24T08:14:27.931Z,26.63
2017-09-24T08:16:55.471Z,27.47
2017-09-24T08:19:23.113Z,28.53
2017-09-24T08:21:50.645Z,26.40
2017-09-24T08:24:18.207Z,26.87
2017-09-24T08:26:45.745Z,25.57
2017-09-24T08:29:13.342Z,27.80
2017-09-24T08:31:40.861Z,25.80
2017-09-24T08:34:09.276Z,26.23
2017-09-24T08:36:37.879Z,27.30
2017-09-24T08:39:05.409Z,26.63
2017-09-24T08:41:32.931Z,27.23
2017-09-24T08:44:01.143Z,27.77
2017-09-24T08:46:28.719Z,27.00
2017-09-24T08:48:56.296Z,28.40
2017-09-24T08:51:23.843Z,26.57
2017-09-24T08:53:51.365Z,28.30
2017-09-24T08:56:18.951Z,27.10
2017-09-24T08:58:46.647Z,27.70
2017-09-24T09:01:14.316Z,26.50
2017-09-24T09:03:41.880Z,28.47
2017-09-24T09:06:10.152Z,27.40
2017-09-24T09:08:37.706Z,27.00
2017-09-24T09:11:05.207Z,27.13
2017-09-24T09:13:32.949Z,27.10
2017-09-24T09:16:02.746Z,27.27
2017-09-24T09:18:30.698Z,27.40
2017-09-24T09:20:58.661Z,28.00
2017-09-24T09:23:26.458Z,28.13
2017-09-24T09:25:54.762Z,27.57
2017-09-24T09:28:24.345Z,27.47
2017-09-24T09:30:52.180Z,27.20
2017-09-24T09:33:22.071Z,28.67
2017-09-24T09:35:49.752Z,27.57
2017-09-24T09:38:17.362Z,28.57
2017-09-24T09:40:44.873Z,27.60
2017-09-24T09:43:14.553Z,25.83
2017-09-24T09:45:53.870Z,27.03
2017-09-24T09:48:21.417Z,25.57
2017-09-24T09:50:48.985Z,25.80
2017-09-24T09:53:16.598Z,27.90
2017-09-24T09:55:44.169Z,27.10
2017-09-24T09:58:11.935Z,28.30
2017-09-24T10:00:39.776Z,26.60
2017-09-24T10:03:07.302Z,27.40
2017-09-24T10:05:34.808Z,27.00
2017-09-24T10:08:14.189Z,25.57
2017-09-24T10:10:41.719Z,24.47
2017-09-24T10:13:09.236Z,23.60
2017-09-24T10:15:36.760Z,23.70
2017-09-24T10:18:04.265Z,24.90
2017-09-24T10:20:31.813Z,24.50
2017-09-24T10:22:59.331Z,24.17
2017-09-24T10:25:26.864Z,24.40
2017-09-24T10:27:55.463Z,23.07
2017-09-24T10:30:35.037Z,23.00
2017-09-24T10:33:02.564Z,21.30
2017-09-24T10:35:30.078Z,21.50
2017-09-24T10:37:57.603Z,22.53
2017-09-24T10:40:25.774Z,21.90
2017-09-24T10:42:53.994Z,19.87
2017-09-24T10:45:25.428Z,19.13
2017-09-24T10:47:52.939Z,19.50
2017-09-24T10:50:20.447Z,19.10
2017-09-24T10:52:48.069Z,18.70
2017-09-24T10:55:15.639Z,15.20
2017-09-24T10:57:43.243Z,15.60
2017-09-24T11:00:10.807Z,15.40
2017-09-24T11:02:38.312Z,15.70
2017-09-24T11:05:05.796Z,16.30
2017-09-24T11:07:34.244Z,14.50
2017-09-24T11:10:01.728Z,13.13
2017-09-24T11:12:29.211Z,14.10
2017-09-24T11:14:57.149Z,13.00
2017-09-24T11:17:24.677Z,12.70
2017-09-24T11:19:52.267Z,14.90
2017-09-24T11:22:19.781Z,13.83
2017-09-24T11:24:47.331Z,12.80
2017-09-24T11:27:14.852Z,12.93
2017-09-24T11:29:42.386Z,14.07
2017-09-24T11:32:15.112Z,13.67
2017-09-24T11:34:42.692Z,12.87
2017-09-24T11:37:10.233Z,13.90
2017-09-24T11:39:37.756Z,13.87
2017-09-24T11:42:05.265Z,15.13
2017-09-24T11:44:32.767Z,14.63
2017-09-24T11:47:00.306Z,12.70
2017-09-24T11:49:27.801Z,14.27
2017-09-24T11:51:55.383Z,14.00
2017-09-24T11:54:22.897Z,14.43
2017-09-24T11:56:50.386Z,12.33
2017-09-24T11:59:17.915Z,11.50
2017-09-24T12:01:45.493Z,14.20
2017-09-24T12:04:13.493Z,14.00
2017-09-24T12:06:41.010Z,12.50
2017-09-24T12:09:08.493Z,13.67
2017-09-24T12:11:36.026Z,13.17
2017-09-24T12:14:03.537Z,12.97
2017-09-24T12:16:31.005Z,12.97
2017-09-24T12:18:58.585Z,12.10
2017-09-24T12:21:26.186Z,11.90
2017-09-24T12:23:53.819Z,11.37
2017-09-24T12:26:21.392Z,11.70
2017-09-24T12:28:49.000Z,13.10
2017-09-24T12:31:16.731Z,11.50
2017-09-24T12:33:44.298Z,13.20
2017-09-24T12:36:12.399Z,12.00
2017-09-24T12:38:40.595Z,11.27
2017-09-24T12:41:08.177Z,10.93
2017-09-24T12:43:35.676Z,10.37
2017-09-24T12:46:03.180Z,11.67
2017-09-24T12:48:30.806Z,9.63
2017-09-24T12:50:58.351Z,9.90
2017-09-24T12:53:25.912Z,10.00
2017-09-24T12:55:53.455Z,10.37
2017-09-24T12:58:20.947Z,11.00
2017-09-24T13:00:48.909Z,10.40
2017-09-24T13:03:16.772Z,10.13
2017-09-24T13:05:44.982Z,10.10
2017-09-24T13:08:12.508Z,10.50
2017-09-24T13:10:40.158Z,9.63
2017-09-24T13:13:07.702Z,10.60
2017-09-24T13:15:35.217Z,10.50
2017-09-24T13:18:02.733Z,9.63
2017-09-24T13:20:30.233Z,10.07
2017-09-24T13:22:57.759Z,10.10
2017-09-24T13:25:25.976Z,9.67
2017-09-24T13:27:53.486Z,9.30
2017-09-24T13:30:21.017Z,9.10
2017-09-24T13:32:48.518Z,8.43
2017-09-24T13:35:16.056Z,7.40
2017-09-24T13:37:43.529Z,7.90
2017-09-24T13:40:11.485Z,12.77
2017-09-24T13:42:38.956Z,14.40
2017-09-24T13:45:06.443Z,13.40
2017-09-24T13:47:33.981Z,13.20
2017-09-24T13:50:01.512Z,14.03
2017-09-24T13:52:29.100Z,13.50
2017-09-24T13:54:56.639Z,13.40
2017-09-24T13:57:24.208Z,13.27
2017-09-24T13:59:51.755Z,12.83
2017-09-24T14:02:19.321Z,13.47
2017-09-24T14:04:47.089Z,13.83
2017-09-24T14:07:15.516Z,14.00
2017-09-24T14:09:43.321Z,14.77
2017-09-24T14:12:10.867Z,14.20
2017-09-24T14:14:38.395Z,12.47
2017-09-24T14:17:06.782Z,12.80
2017-09-24T14:19:34.366Z,12.50
2017-09-24T14:22:01.993Z,12.77
2017-09-24T14:24:33.506Z,12.40
2017-09-24T14:27:01.107Z,12.00
2017-09-24T14:29:28.670Z,11.13
2017-09-24T14:31:56.188Z,11.37
2017-09-24T14:34:24.344Z,12.70
2017-09-24T14:36:51.855Z,11.57
2017-09-24T14:39:19.385Z,10.17
2017-09-24T14:41:46.881Z,11.70
2017-09-24T14:44:14.400Z,11.90
2017-09-24T14:46:41.973Z,10.50
2017-09-24T14:49:09.559Z,10.30
2017-09-24T14:51:37.117Z,10.90
2017-09-24T14:54:04.667Z,11.20
2017-09-24T14:56:32.546Z,10.03
2017-09-24T14:59:00.735Z,9.50
2017-09-24T15:01:28.244Z,10.33
2017-09-24T15:03:55.778Z,10.30
2017-09-24T15:06:23.305Z,10.10
2017-09-24T15:08:50.901Z,11.03
2017-09-24T15:11:19.164Z,9.33
2017-09-24T15:13:46.731Z,9.70
2017-09-24T15:16:14.247Z,10.20
2017-09-24T15:18:41.766Z,10.63
2017-09-24T15:21:09.332Z,11.00
2017-09-24T15:23:36.874Z,10.60
2017-09-24T15:26:04.491Z,10.00
2017-09-24T15:28:33.126Z,10.00
2017-09-24T15:31:00.627Z,10.57
2017-09-24T15:33:28.120Z,10.00
2017-09-24T15:35:55.613Z,10.00
2017-09-24T15:38:23.286Z,9.77
2017-09-24T15:40:50.866Z,10.83
2017-09-24T15:43:18.431Z,9.90
2017-09-24T15:45:46.007Z,9.50
2017-09-24T15:48:13.533Z,9.63
2017-09-24T15:50:41.192Z,9.57
2017-09-24T15:53:09.158Z,9.53
2017-09-24T15:55:37.395Z,9.43
2017-09-24T15:58:05.062Z,8.83
2017-09-24T16:00:32.553Z,10.30
2017-09-24T16:03:00.043Z,10.00
2017-09-24T16:05:27.577Z,9.53
2017-09-24T16:07:55.187Z,9.20
2017-09-24T16:10:22.802Z,9.93
2017-09-24T16:12:50.354Z,10.00
2017-09-24T16:15:17.915Z,9.20
2017-09-24T16:17:45.385Z,10.53
2017-09-24T16:20:12.906Z,10.57
2017-09-24T16:22:40.581Z,9.63
2017-09-24T16:25:08.047Z,9.90
2017-09-24T16:27:36.399Z,10.07
2017-09-24T16:30:04.025Z,9.03
2017-09-24T16:32:31.520Z,9.67
2017-09-24T16:34:59.938Z,10.00
2017-09-24T16:37:29.211Z,10.23
2017-09-24T16:39:57.374Z,9.80
2017-09-24T16:42:25.526Z,10.77
2017-09-24T16:44:53.908Z,10.60
2017-09-24T16:47:21.437Z,11.00
2017-09-24T16:49:48.968Z,11.50
2017-09-24T16:52:17.183Z,11.33
2017-09-24T16:54:44.781Z,11.40
2017-09-24T16:57:13.249Z,11.03
2017-09-24T16:59:40.815Z,11.80
2017-09-24T17:02:09.303Z,12.53
2017-09-24T17:04:41.606Z,12.17
2017-09-24T17:07:11.230Z,12.37
2017-09-24T17:09:41.301Z,13.07
2017-09-24T17:12:08.849Z,13.40
2017-09-24T17:14:36.335Z,13.33
2017-09-24T17:17:03.921Z,13.67
2017-09-24T17:19:31.485Z,13.13
2017-09-24T17:21:59.047Z,13.67
2017-09-24T17:24:26.643Z,14.87
2017-09-24T17:26:54.269Z,14.37
2017-09-24T17:29:21.927Z,13.97
2017-09-24T17:31:49.484Z,14.70
2017-09-24T17:34:17.051Z,13.70
2017-09-24T17:36:44.525Z,14.40
2017-09-24T17:39:12.177Z,13.30
2017-09-24T17:41:39.743Z,13.17
2017-09-24T17:44:07.272Z,13.67
2017-09-24T17:46:34.788Z,13.03
2017-09-24T17:49:02.388Z,12.60
2017-09-24T17:51:29.925Z,12.90
2017-09-24T17:53:57.459Z,13.07
2017-09-24T17:56:25.554Z,13.50
2017-09-24T17:58:53.903Z,13.90
2017-09-24T18:01:21.469Z,14.80
2017-09-24T18:03:49.065Z,14.43
2017-09-24T18:06:16.568Z,14.50
2017-09-24T18:08:44.103Z,14.80
2017-09-24T18:11:11.970Z,15.70
2017-09-24T18:13:39.545Z,15.47
2017-09-24T18:16:07.691Z,15.17
2017-09-24T18:18:35.673Z,15.10
2017-09-24T18:21:03.254Z,14.00
2017-09-24T18:23:30.769Z,14.60
2017-09-24T18:25:58.337Z,15.57
2017-09-24T18:28:25.942Z,16.07
2017-09-24T18:30:53.511Z,14.87
2017-09-24T18:33:23.137Z,15.87
2017-09-24T18:35:52.408Z,15.93
2017-09-24T18:38:21.959Z,15.83
2017-09-24T18:40:50.702Z,17.80
2017-09-24T18:43:20.396Z,16.50
2017-09-24T18:45:50.799Z,16.20
2017-09-24T18:48:19.852Z,15.63
2017-09-24T18:50:49.370Z,16.57
2017-09-24T18:53:20.624Z,16.80
2017-09-24T18:55:51.776Z,16.70
2017-09-24T18:58:21.738Z,16.00
2017-09-24T19:00:51.457Z,14.80
2017-09-24T19:03:21.546Z,15.57
2017-09-24T19:05:49.162Z,17.10
2017-09-24T19:08:16.751Z,15.67
2017-09-24T19:10:44.360Z,18.53
2017-09-24T19:13:11.985Z,17.73
2017-09-24T19:15:39.514Z,16.87
2017-09-24T19:18:08.503Z,16.53
2017-09-24T19:20:36.356Z,18.17
2017-09-24T19:23:04.179Z,16.40
2017-09-24T19:25:31.782Z,18.80
2017-09-24T19:27:59.307Z,17.57
2017-09-24T19:30:28.731Z,17.10
2017-09-24T19:32:56.857Z,20.00
2017-09-24T19:35:25.732Z,30.03
2017-09-24T19:37:53.362Z,20.77
2017-09-24T19:40:21.822Z,23.13
2017-09-24T19:42:50.105Z,22.67
2017-09-24T19:45:17.851Z,26.40
2017-09-24T19:47:45.527Z,21.77
2017-09-24T19:50:13.104Z,20.20
2017-09-24T19:52:41.010Z,17.93
2017-09-24T19:55:08.559Z,20.30
2017-09-24T19:57:36.220Z,20.83
2017-09-24T20:00:04.809Z,23.17
2017-09-24T20:02:33.310Z,22.30
2017-09-24T20:05:00.976Z,22.00
2017-09-24T20:07:28.631Z,21.93
2017-09-24T20:09:56.338Z,20.03
2017-09-24T20:12:24.099Z,20.40
2017-09-24T20:14:52.394Z,19.90
2017-09-24T20:17:20.227Z,19.40
2017-09-24T20:19:47.771Z,18.47
2017-09-24T20:22:15.494Z,19.10
2017-09-24T20:24:43.121Z,22.00
2017-09-24T20:27:11.146Z,21.53
2017-09-24T20:29:38.844Z,19.53
2017-09-24T20:32:07.261Z,19.83
2017-09-24T20:34:34.793Z,21.20
2017-09-24T20:37:02.529Z,18.80
2017-09-24T20:39:30.304Z,20.57
2017-09-24T20:41:58.184Z,19.43
2017-09-24T20:44:25.956Z,18.77
2017-09-24T20:46:54.838Z,18.90
2017-09-24T20:49:22.410Z,19.07
2017-09-24T20:51:50.840Z,17.47
2017-09-24T20:54:18.394Z,18.40
2017-09-24T20:56:45.971Z,17.53
2017-09-24T20:59:13.987Z,18.30
2017-09-24T21:01:42.439Z,18.27
2017-09-24T21:04:10.062Z,17.90
2017-09-24T21:06:38.262Z,17.80
2017-09-24T21:09:05.877Z,18.33
2017-09-24T21:11:33.542Z,19.40
2017-09-24T21:14:01.446Z,20.70
2017-09-24T21:16:29.170Z,21.93
2017-09-24T21:18:56.982Z,22.53
2017-09-24T21:21:25.396Z,19.23
2017-09-24T21:23:53.242Z,17.67
2017-09-24T21:26:21.014Z,17.63
2017-09-24T21:28:48.659Z,17.97
2017-09-24T21:31:17.292Z,16.90
2017-09-24T21:33:46.483Z,16.93
2017-09-24T21:36:14.184Z,17.13
2017-09-24T21:38:42.180Z,16.03
2017-09-24T21:41:14.410Z,17.70
2017-09-24T21:43:42.026Z,17.77
2017-09-24T21:46:09.973Z,16.10
2017-09-24T21:48:38.950Z,16.43
2017-09-24T21:51:06.510Z,15.47
2017-09-24T21:53:34.380Z,16.70
2017-09-24T21:56:02.065Z,15.80
2017-09-24T21:58:31.775Z,17.03
2017-09-24T22:00:59.435Z,15.80
2017-09-24T22:03:27.212Z,15.90
2017-09-24T22:05:54.716Z,17.30
2017-09-24T22:08:22.349Z,16.40
2017-09-24T22:10:50.077Z,16.07
2017-09-24T22:13:17.679Z,17.57
2017-09-24T22:15:45.255Z,15.93
2017-09-24T22:18:12.881Z,15.73
2017-09-24T22:20:41.094Z,15.63
2017-09-24T22:23:08.973Z,15.57
2017-09-24T22:25:37.009Z,17.23
2017-09-24T22:28:09.600Z,16.60
2017-09-24T22:30:40.967Z,15.27
2017-09-24T22:33:08.599Z,16.23
2017-09-24T22:35:36.432Z,16.33
2017-09-24T22:38:04.851Z,15.33
2017-09-24T22:40:32.569Z,16.40
2017-09-24T22:43:00.569Z,16.27
2017-09-24T22:45:28.301Z,16.17
2017-09-24T22:47:58.838Z,14.77
2017-09-24T22:50:26.601Z,15.83
2017-09-24T22:52:54.234Z,16.53
2017-09-24T22:55:21.862Z,15.50
2017-09-24T22:57:49.477Z,15.00
2017-09-24T23:00:17.396Z,15.90
2017-09-24T23:02:44.982Z,15.10
2017-09-24T23:05:14.263Z,15.23
2017-09-24T23:07:50.396Z,15.00
2017-09-24T23:10:21.497Z,15.43
2017-09-24T23:12:49.839Z,14.83
2017-09-24T23:15:17.431Z,15.20
2017-09-24T23:17:45.048Z,16.27
2017-09-24T23:20:12.650Z,15.20
2017-09-24T23:22:40.333Z,15.00
2017-09-24T23:25:08.757Z,15.60
2017-09-24T23:27:36.451Z,15.80
2017-09-24T23:30:04.950Z,15.87
2017-09-24T23:32:32.600Z,14.97
2017-09-24T23:35:00.885Z,14.67
2017-09-24T23:37:28.667Z,14.83
2017-09-24T23:39:56.511Z,15.10
2017-09-24T23:42:24.843Z,14.20
2017-09-24T23:44:57.796Z,14.17
2017-09-24T23:47:25.637Z,15.40
2017-09-24T23:52:33.022Z,14.50
2017-09-24T23:55:02.450Z,14.80
2017-09-24T23:57:29.995Z,15.30
2017-09-24T23:59:57.915Z,14.83
